Time;durP1;ratioP1;P1;durP2;ratioP2;P2;SDS_P1;SDS_P2;PMS_P1;PMS_P2;Temp;Humidity;BMP_temperature;BMP_pressure;BME280_temperature;BME280_humidity;BME280_pressure;Samples;Min_cycle;Max_cycle;Signal;HPM_P1;HPM_P2
2022/11/18 00:02:09;;;;;;;183.25;87.63;;;8.20;99.90;;;;;;6276938;22;19999;-78
2022/11/18 00:04:34;;;;;;;186.43;91.10;;;8.20;99.90;;;;;;6276755;22;20000;-78
2022/11/18 00:07:00;;;;;;;190.50;91.80;;;8.10;99.90;;;;;;6277152;22;20049;-78
2022/11/18 00:09:26;;;;;;;156.30;81.35;;;8.20;99.90;;;;;;6276860;22;19996;-78
2022/11/18 00:14:36;;;;;;;152.02;78.53;;;8.30;99.90;;;;;;6276851;22;20006;-79
2022/11/18 00:17:04;;;;;;;162.25;84.43;;;8.40;99.90;;;;;;6276035;22;20075;-77
2022/11/18 00:19:35;;;;;;;195.80;106.53;;;8.40;99.90;;;;;;6276535;22;20049;-79
2022/11/18 00:22:02;;;;;;;185.00;97.28;;;8.50;99.90;;;;;;6250270;22;19992;-79
2022/11/18 00:24:28;;;;;;;168.05;89.80;;;8.50;99.90;;;;;;6276172;22;20004;-77
2022/11/18 00:26:54;;;;;;;172.07;90.07;;;8.50;99.90;;;;;;6276708;22;20309;-79
2022/11/18 00:29:21;;;;;;;162.70;85.32;;;8.60;99.90;;;;;;6276545;22;19991;-80
2022/11/18 00:31:48;;;;;;;228.05;107.05;;;8.60;99.90;;;;;;6276636;22;20008;-79
2022/11/18 00:34:16;;;;;;;227.10;97.30;;;8.70;99.90;;;;;;6276267;22;20046;-77
2022/11/18 00:36:42;;;;;;;183.18;82.82;;;8.70;99.90;;;;;;6276508;22;19992;-78
2022/11/18 00:39:13;;;;;;;401.02;168.82;;;8.70;99.90;;;;;;6276155;22;20345;-79
2022/11/18 00:44:23;;;;;;;187.80;95.10;;;8.70;99.90;;;;;;6276309;22;20030;-79
2022/11/18 00:46:49;;;;;;;195.80;103.05;;;8.70;99.90;;;;;;6276061;22;20345;-78
2022/11/18 00:49:15;;;;;;;250.07;135.30;;;8.80;99.90;;;;;;6276179;22;19996;-79
2022/11/18 00:51:40;;;;;;;237.13;126.05;;;8.80;99.90;;;;;;6275122;22;19999;-78
2022/11/18 00:54:06;;;;;;;236.70;123.40;;;8.90;99.90;;;;;;6276289;22;20434;-79
2022/11/18 00:56:32;;;;;;;219.40;118.07;;;8.90;99.90;;;;;;6276375;22;19992;-80
2022/11/18 00:58:58;;;;;;;208.40;111.63;;;8.90;99.90;;;;;;6276526;22;20070;-80
2022/11/18 01:01:24;;;;;;;193.70;98.65;;;9.00;99.90;;;;;;6276351;22;19992;-77
2022/11/18 01:03:50;;;;;;;203.93;108.53;;;9.00;99.90;;;;;;6249281;22;20126;-79
2022/11/18 01:06:15;;;;;;;247.52;126.20;;;9.00;99.90;;;;;;6276668;22;20394;-78
2022/11/18 01:08:41;;;;;;;250.25;125.03;;;9.00;99.90;;;;;;6276301;22;19996;-79
2022/11/18 01:14:09;;;;;;;214.95;103.90;;;8.90;99.90;;;;;;6250238;22;20352;-77
2022/11/18 01:16:34;;;;;;;195.27;101.05;;;8.90;99.90;;;;;;6249753;22;20045;-79
2022/11/18 01:19:00;;;;;;;188.90;95.80;;;8.90;99.90;;;;;;6278917;22;19999;-79
2022/11/18 01:21:27;;;;;;;187.57;94.25;;;8.90;99.90;;;;;;6278775;22;20542;-79
2022/11/18 01:23:53;;;;;;;154.40;79.97;;;8.90;99.90;;;;;;6278471;22;19996;-78
2022/11/18 01:26:19;;;;;;;161.95;81.78;;;8.80;99.90;;;;;;6277222;22;19996;-78
2022/11/18 01:28:45;;;;;;;151.57;80.05;;;8.80;99.90;;;;;;6278559;22;20002;-77
2022/11/18 01:31:17;;;;;;;178.90;93.45;;;8.80;99.90;;;;;;6251218;22;20011;-79
2022/11/18 01:33:44;;;;;;;167.32;88.85;;;8.80;99.90;;;;;;6278379;22;20077;-77
2022/11/18 01:36:26;;;;;;;158.05;84.47;;;8.70;99.90;;;;;;6278690;22;20028;-79
2022/11/18 01:38:53;;;;;;;158.93;86.20;;;8.70;99.90;;;;;;6278673;22;20018;-77
2022/11/18 01:41:21;;;;;;;161.30;85.97;;;8.70;99.90;;;;;;6278071;22;20301;-78
2022/11/18 01:43:55;;;;;;;146.93;77.80;;;8.70;99.90;;;;;;6250584;22;20011;-78
2022/11/18 01:46:22;;;;;;;140.48;77.55;;;8.70;99.90;;;;;;6250897;22;19992;-77
2022/11/18 01:49:03;;;;;;;151.75;84.88;;;8.70;99.90;;;;;;6277942;22;19996;-78
2022/11/18 01:51:33;;;;;;;196.40;105.55;;;8.70;99.90;;;;;;6277672;22;19997;-78
2022/11/18 01:54:07;;;;;;;187.05;96.22;;;8.80;99.90;;;;;;6278093;22;20420;-77
2022/11/18 01:56:41;;;;;;;183.77;97.15;;;8.70;99.90;;;;;;6277772;22;20303;-79
2022/11/18 01:59:10;;;;;;;189.95;101.10;;;8.70;99.90;;;;;;6277874;22;20046;-79
2022/11/18 02:01:36;;;;;;;208.35;112.63;;;8.70;99.90;;;;;;6277593;22;19988;-79
2022/11/18 02:04:02;;;;;;;210.15;111.20;;;8.70;99.90;;;;;;6277916;22;20055;-79
2022/11/18 02:06:28;;;;;;;197.98;104.63;;;8.60;99.90;;;;;;6277780;22;19996;-78
2022/11/18 02:08:55;;;;;;;196.75;104.72;;;8.60;99.90;;;;;;6276275;22;20426;-79
2022/11/18 02:14:08;;;;;;;206.05;104.72;;;8.60;99.90;;;;;;6278116;22;20011;-77
2022/11/18 02:16:57;;;;;;;224.40;107.15;;;8.60;99.90;;;;;;6278196;22;19995;-78
2022/11/18 02:19:44;;;;;;;183.05;92.38;;;8.60;99.90;;;;;;6278075;22;20408;-77
2022/11/18 02:22:47;;;;;;;189.50;102.68;;;8.60;99.90;;;;;;6278347;22;19991;-78
2022/11/18 02:25:35;;;;;;;199.52;108.47;;;8.50;99.90;;;;;;6277952;22;20003;-78
2022/11/18 02:28:23;;;;;;;174.05;94.22;;;8.50;99.90;;;;;;6277942;22;20003;-78
2022/11/18 02:31:05;;;;;;;166.98;93.45;;;8.60;99.90;;;;;;6277298;22;20004;-79
2022/11/18 02:34:14;;;;;;;200.00;111.30;;;8.60;99.90;;;;;;6277982;22;19996;-79
2022/11/18 02:36:53;;;;;;;203.38;107.25;;;8.60;99.90;;;;;;6253920;22;19995;-78
2022/11/18 02:39:25;;;;;;;197.65;104.30;;;8.50;99.90;;;;;;6278197;22;19996;-78
2022/11/18 02:41:53;;;;;;;;;;;8.60;99.90;;;;;;6278325;22;20057;-78
2022/11/18 02:44:22;;;;;;;172.40;89.97;;;8.60;99.90;;;;;;6277862;22;19957;-78
2022/11/18 02:46:54;;;;;;;159.95;88.75;;;8.60;99.90;;;;;;6250586;22;19996;-80
2022/11/18 02:49:22;;;;;;;;;;;8.60;99.90;;;;;;6278730;22;19988;-79
2022/11/18 02:51:50;;;;;;;160.10;87.93;;;8.60;99.90;;;;;;6277278;22;19899;-77
2022/11/18 02:54:19;;;;;;;165.20;88.22;;;8.50;99.90;;;;;;6277077;22;20098;-77
2022/11/18 02:56:47;;;;;;;167.15;88.18;;;8.50;99.90;;;;;;6277666;22;19992;-77
2022/11/18 02:59:17;;;;;;;161.48;83.55;;;8.40;99.90;;;;;;6276851;22;20349;-78
2022/11/18 03:01:43;;;;;;;149.15;80.70;;;8.40;99.90;;;;;;6277287;22;20026;-77
2022/11/18 03:04:11;;;;;;;178.30;98.32;;;8.40;99.90;;;;;;6250222;22;20004;-78
2022/11/18 03:06:40;;;;;;;166.90;90.85;;;8.50;99.90;;;;;;6277022;22;20440;-78
2022/11/18 03:09:27;;;;;;;169.38;92.78;;;8.50;99.90;;;;;;6250009;22;20079;-79
2022/11/18 03:12:18;;;;;;;167.48;90.35;;;8.50;99.90;;;;;;6277358;22;20436;-79
2022/11/18 03:14:59;;;;;;;180.25;95.32;;;8.50;99.90;;;;;;6277284;22;20003;-78
2022/11/18 03:17:43;;;;;;;178.43;98.05;;;8.50;99.90;;;;;;6277626;22;19992;-78
2022/11/18 03:20:21;;;;;;;206.63;114.18;;;8.60;99.90;;;;;;6250066;22;20003;-78
2022/11/18 03:23:08;;;;;;;215.13;111.65;;;8.60;99.90;;;;;;6277065;22;20073;-78
2022/11/18 03:25:40;;;;;;;183.00;101.40;;;8.60;99.90;;;;;;6277540;22;19995;-78
2022/11/18 03:28:10;;;;;;;;;;;8.60;99.90;;;;;;6277933;22;20003;-78
2022/11/18 03:30:42;;;;;;;169.43;92.10;;;8.70;99.90;;;;;;6276677;22;20208;-78
2022/11/18 03:33:10;;;;;;;;;;;8.70;99.90;;;;;;6278060;22;19992;-78
2022/11/18 03:35:39;;;;;;;150.45;79.18;;;8.70;99.90;;;;;;6250083;22;19910;-79
2022/11/18 03:38:14;;;;;;;151.65;82.43;;;8.70;99.90;;;;;;6277270;22;20018;-79
2022/11/18 03:40:45;;;;;;;177.52;98.68;;;8.70;99.90;;;;;;6250159;22;20304;-78
2022/11/18 03:43:17;;;;;;;167.60;90.17;;;8.70;99.90;;;;;;6277304;22;20019;-79
2022/11/18 03:45:48;;;;;;;162.50;89.28;;;8.70;99.90;;;;;;6250214;22;20000;-79
2022/11/18 03:48:21;;;;;;;164.80;92.43;;;8.70;99.90;;;;;;6249952;22;20482;-77
2022/11/18 03:50:55;;;;;;;162.48;91.75;;;8.70;99.90;;;;;;6276796;22;20006;-77
2022/11/18 03:53:24;;;;;;;167.82;90.30;;;8.60;99.90;;;;;;6277162;22;20000;-77
2022/11/18 03:55:54;;;;;;;167.23;89.18;;;8.70;99.90;;;;;;6276972;22;20003;-79
2022/11/18 03:58:30;;;;;;;173.35;89.18;;;8.70;99.90;;;;;;6276556;22;20002;-78
2022/11/18 04:01:03;;;;;;;172.60;96.18;;;8.70;99.90;;;;;;6276549;22;20277;-78
2022/11/18 04:03:29;;;;;;;188.45;99.75;;;8.70;99.90;;;;;;6276310;22;20000;-79
2022/11/18 04:06:10;;;;;;;175.38;95.65;;;8.70;99.90;;;;;;6276972;22;20023;-77
2022/11/18 04:08:38;;;;;;;180.82;100.45;;;8.70;99.90;;;;;;6276859;22;20031;-79
2022/11/18 04:12:01;;;;;;;205.55;106.78;;;8.80;99.90;;;;;;6276245;22;20126;-77
2022/11/18 04:14:05;;;;;;;201.05;105.03;;;8.80;99.90;;;;;;6276033;22;19996;-78
2022/11/18 04:16:37;;;;;;;181.80;99.65;;;8.80;99.90;;;;;;6276795;22;20062;-78
2022/11/18 04:19:03;;;;;;;183.40;99.05;;;8.80;99.90;;;;;;6276681;22;20427;-77
2022/11/18 04:21:28;;;;;;;181.70;98.80;;;8.90;99.90;;;;;;6276466;22;20067;-79
2022/11/18 04:23:54;;;;;;;168.55;93.57;;;8.90;99.90;;;;;;6275108;22;20043;-78
2022/11/18 04:26:20;;;;;;;188.85;97.95;;;8.90;99.90;;;;;;6276443;22;19996;-77
2022/11/18 04:28:45;;;;;;;179.98;98.80;;;9.00;99.90;;;;;;6276501;22;20472;-78
2022/11/18 04:31:11;;;;;;;175.77;96.75;;;8.90;99.90;;;;;;6276310;22;20007;-77
2022/11/18 04:33:37;;;;;;;188.27;97.22;;;8.90;99.90;;;;;;6276319;22;20030;-78
2022/11/18 04:36:03;;;;;;;169.75;96.22;;;9.00;99.90;;;;;;6249599;22;20304;-78
2022/11/18 04:38:29;;;;;;;175.68;100.72;;;9.00;99.90;;;;;;6276524;22;20361;-79
2022/11/18 04:40:54;;;;;;;185.80;100.68;;;9.00;99.90;;;;;;6276778;22;19996;-79
2022/11/18 04:43:20;;;;;;;185.25;100.30;;;9.10;99.90;;;;;;6275981;22;20010;-78
2022/11/18 04:45:46;;;;;;;187.02;102.72;;;9.10;99.90;;;;;;6275334;22;20109;-77
2022/11/18 04:48:11;;;;;;;190.13;100.35;;;9.00;99.90;;;;;;6276581;22;19988;-79
2022/11/18 04:50:37;;;;;;;196.65;106.97;;;9.00;99.90;;;;;;6276491;22;20022;-78
2022/11/18 04:53:03;;;;;;;196.80;109.47;;;9.00;99.90;;;;;;6277443;22;20309;-79
2022/11/18 04:55:28;;;;;;;197.73;104.57;;;9.00;99.90;;;;;;6278455;22;20420;-80
2022/11/18 04:57:54;;;;;;;192.45;106.93;;;9.00;99.90;;;;;;6278649;22;20015;-79
2022/11/18 05:00:21;;;;;;;210.15;108.82;;;8.90;99.90;;;;;;6277863;22;20003;-79
2022/11/18 05:02:47;;;;;;;199.35;107.25;;;8.90;99.90;;;;;;6278781;22;20004;-79
2022/11/18 05:05:13;;;;;;;195.77;107.82;;;8.90;99.90;;;;;;6278674;22;20018;-78
2022/11/18 05:07:39;;;;;;;201.02;110.13;;;8.80;99.90;;;;;;6278807;22;20404;-79
2022/11/18 05:10:05;;;;;;;209.90;115.50;;;8.90;99.90;;;;;;6278697;22;19995;-79
2022/11/18 05:12:49;;;;;;;245.88;145.75;;;8.90;99.90;;;;;;6278662;22;19995;-77
2022/11/18 05:15:16;;;;;;;232.20;132.98;;;8.80;99.90;;;;;;6278753;22;20002;-79
2022/11/18 05:17:42;;;;;;;208.55;111.85;;;8.90;99.90;;;;;;6278323;22;20427;-78
2022/11/18 05:20:08;;;;;;;196.85;109.78;;;8.80;99.90;;;;;;6278327;22;20015;-78
2022/11/18 05:22:34;;;;;;;195.23;104.43;;;8.80;99.90;;;;;;6250985;22;20004;-79
2022/11/18 05:25:00;;;;;;;195.15;109.85;;;8.90;99.90;;;;;;6278276;22;20492;-77
2022/11/18 05:27:26;;;;;;;205.95;114.03;;;8.90;99.90;;;;;;6277744;22;20313;-78
2022/11/18 05:29:52;;;;;;;203.23;108.35;;;8.90;99.90;;;;;;6278192;22;19995;-77
2022/11/18 05:32:18;;;;;;;192.55;106.45;;;8.90;99.90;;;;;;6277922;22;20011;-78
2022/11/18 05:34:43;;;;;;;163.52;89.53;;;8.80;99.90;;;;;;6277892;22;20077;-77
2022/11/18 05:37:10;;;;;;;173.13;88.72;;;8.80;99.90;;;;;;6278089;22;20027;-77
2022/11/18 05:39:35;;;;;;;152.00;83.28;;;8.80;99.90;;;;;;6278235;22;20041;-77
2022/11/18 05:44:46;;;;;;;129.85;71.15;;;8.90;99.90;;;;;;6277875;22;20439;-77
2022/11/18 05:47:12;;;;;;;136.98;74.20;;;9.00;99.90;;;;;;6278055;22;19992;-78
2022/11/18 05:49:38;;;;;;;139.88;72.38;;;9.00;99.90;;;;;;6277580;22;20425;-78
2022/11/18 05:52:04;;;;;;;130.82;69.03;;;9.00;99.90;;;;;;6278232;22;19995;-77
2022/11/18 05:54:30;;;;;;;119.97;63.42;;;9.00;99.90;;;;;;6277647;22;20046;-78
2022/11/18 05:56:56;;;;;;;121.80;65.38;;;8.90;99.90;;;;;;6278057;22;19995;-77
2022/11/18 05:59:22;;;;;;;128.52;62.75;;;9.00;99.90;;;;;;6276316;22;20019;-78
2022/11/18 06:01:53;;;;;;;144.35;72.72;;;9.00;99.90;;;;;;6276929;22;19996;-78
2022/11/18 06:04:26;;;;;;;107.80;57.75;;;9.00;99.90;;;;;;6276612;22;20401;-79
2022/11/18 06:06:54;;;;;;;114.45;60.75;;;9.00;99.90;;;;;;6278360;22;19998;-79
2022/11/18 06:09:24;;;;;;;107.93;59.40;;;9.00;99.90;;;;;;6251491;22;20089;-79
2022/11/18 06:11:54;;;;;;;107.95;58.90;;;9.10;99.90;;;;;;6278462;22;20355;-78
2022/11/18 06:14:36;;;;;;;99.70;53.75;;;9.10;99.90;;;;;;6278290;22;20011;-79
2022/11/18 06:17:07;;;;;;;100.28;56.25;;;9.20;99.90;;;;;;6278166;22;19996;-78
2022/11/18 06:19:33;;;;;;;95.57;53.40;;;9.20;99.90;;;;;;6275478;22;20450;-79
2022/11/18 06:21:59;;;;;;;86.03;51.67;;;9.20;99.90;;;;;;6277636;22;20405;-79
2022/11/18 06:24:25;;;;;;;77.32;45.25;;;9.20;99.90;;;;;;6277427;22;20007;-79
2022/11/18 06:26:51;;;;;;;86.75;49.53;;;9.20;99.90;;;;;;6277802;22;20034;-78
2022/11/18 06:29:19;;;;;;;80.30;47.58;;;9.20;99.90;;;;;;6277740;22;20002;-78
2022/11/18 06:31:45;;;;;;;86.03;48.05;;;9.30;99.90;;;;;;6277841;22;20058;-78
2022/11/18 06:34:10;;;;;;;111.18;61.45;;;9.30;99.90;;;;;;6250993;22;20421;-78
2022/11/18 06:36:36;;;;;;;131.68;75.75;;;9.30;99.90;;;;;;6250827;22;19996;-78
2022/11/18 06:39:06;;;;;;;127.15;69.03;;;9.30;99.90;;;;;;6277957;22;19992;-79
2022/11/18 06:41:33;;;;;;;122.57;65.53;;;9.30;99.90;;;;;;6277968;22;19998;-78
2022/11/18 06:43:59;;;;;;;120.90;66.55;;;9.30;99.90;;;;;;6277691;22;20000;-78
2022/11/18 06:49:19;;;;;;;152.30;85.60;;;9.40;99.90;;;;;;6185323;23;20076;-78
2022/11/18 06:51:45;;;;;;;119.15;68.20;;;9.40;99.90;;;;;;6183951;23;20501;-78
2022/11/18 06:54:11;;;;;;;109.05;60.78;;;9.50;99.90;;;;;;6184148;23;20338;-78
2022/11/18 06:56:37;;;;;;;121.97;66.80;;;9.60;99.90;;;;;;6183836;23;19993;-78
2022/11/18 06:59:03;;;;;;;136.30;72.93;;;9.60;99.90;;;;;;6183809;23;19997;-79
2022/11/18 07:01:31;;;;;;;268.60;149.45;;;9.70;99.90;;;;;;6183800;23;19997;-78
2022/11/18 07:03:58;;;;;;;215.00;122.85;;;9.70;99.90;;;;;;6183829;23;20012;-79
2022/11/18 07:06:26;;;;;;;99.65;55.75;;;9.70;99.90;;;;;;6183804;23;20001;-78
2022/11/18 07:08:52;;;;;;;88.80;49.22;;;9.70;99.90;;;;;;6184039;23;20001;-78
2022/11/18 07:11:20;;;;;;;92.13;46.33;;;9.70;99.90;;;;;;6183818;23;20377;-78
2022/11/18 07:13:46;;;;;;;105.18;53.05;;;9.70;99.90;;;;;;6183456;23;20005;-78
2022/11/18 07:16:18;;;;;;;90.00;49.88;;;9.70;99.90;;;;;;6180926;23;20390;-79
2022/11/18 07:18:45;;;;;;;86.97;50.50;;;9.70;99.90;;;;;;6182354;23;20001;-78
2022/11/18 07:21:13;;;;;;;93.85;52.72;;;9.70;99.90;;;;;;6183278;23;20001;-79
2022/11/18 07:23:40;;;;;;;95.65;55.30;;;9.70;99.90;;;;;;6182390;23;20032;-79
2022/11/18 07:26:06;;;;;;;88.20;48.35;;;9.70;99.90;;;;;;6244102;22;20083;-79
2022/11/18 07:28:33;;;;;;;82.05;45.35;;;9.70;99.90;;;;;;6249682;22;20404;-78
2022/11/18 07:31:03;;;;;;;89.65;51.13;;;9.80;99.90;;;;;;6276983;22;20015;-78
2022/11/18 07:33:30;;;;;;;88.80;52.42;;;9.80;99.90;;;;;;6250307;22;20061;-80
2022/11/18 07:36:00;;;;;;;93.55;52.85;;;9.80;99.90;;;;;;6278075;22;19995;-78
2022/11/18 07:38:26;;;;;;;89.45;52.95;;;9.80;99.90;;;;;;6277674;22;19996;-78
2022/11/18 07:40:52;;;;;;;88.40;52.92;;;9.80;99.90;;;;;;6277233;22;20079;-80
2022/11/18 07:43:17;;;;;;;98.25;54.95;;;9.90;99.90;;;;;;6250444;22;20035;-78
2022/11/18 07:45:43;;;;;;;95.53;56.45;;;9.90;99.90;;;;;;6276904;22;19996;-79
2022/11/18 07:48:09;;;;;;;92.03;55.60;;;9.90;99.90;;;;;;6275520;22;20050;-80
2022/11/18 07:50:35;;;;;;;98.45;55.88;;;10.00;99.90;;;;;;6275966;22;19999;-78
2022/11/18 07:53:00;;;;;;;127.13;66.78;;;10.00;99.90;;;;;;6277406;22;19999;-79
2022/11/18 07:55:26;;;;;;;111.55;62.85;;;10.10;99.90;;;;;;6250084;22;20004;-78
2022/11/18 07:57:54;;;;;;;120.88;63.08;;;10.10;99.90;;;;;;6277489;22;20063;-80
2022/11/18 08:00:20;;;;;;;106.43;58.97;;;10.20;99.90;;;;;;6277437;22;20421;-78
2022/11/18 08:02:49;;;;;;;115.78;65.22;;;10.20;99.90;;;;;;6276483;22;19995;-78
2022/11/18 08:05:15;;;;;;;142.60;81.07;;;10.30;99.90;;;;;;6276809;22;20435;-78
2022/11/18 08:07:41;;;;;;;251.00;133.55;;;10.30;99.90;;;;;;6276646;22;19992;-80
2022/11/18 08:10:07;;;;;;;194.35;105.88;;;10.40;99.90;;;;;;6276849;22;20403;-78
2022/11/18 08:12:33;;;;;;;221.60;117.22;;;10.30;99.90;;;;;;6277402;22;20027;-78
2022/11/18 08:14:59;;;;;;;154.25;84.70;;;10.30;99.90;;;;;;6277391;22;19988;-80
2022/11/18 08:17:24;;;;;;;171.95;95.72;;;10.30;99.90;;;;;;6277170;22;19991;-80
2022/11/18 08:19:50;;;;;;;117.60;67.53;;;10.30;99.90;;;;;;6277227;22;20041;-79
2022/11/18 08:22:19;;;;;;;306.35;152.85;;;10.20;99.90;;;;;;6277422;22;19998;-78
2022/11/18 08:24:46;;;;;;;265.27;134.90;;;10.30;99.90;;;;;;6276644;22;20079;-79
2022/11/18 08:27:12;;;;;;;193.68;104.65;;;10.30;99.90;;;;;;6278336;22;19992;-79
2022/11/18 08:29:38;;;;;;;88.72;54.08;;;10.30;99.90;;;;;;6279192;22;19999;-78
2022/11/18 08:32:04;;;;;;;93.32;54.42;;;10.20;99.90;;;;;;6279368;22;20018;-80
2022/11/18 08:34:30;;;;;;;100.05;57.58;;;10.20;99.90;;;;;;6278970;22;19995;-78
2022/11/18 08:36:56;;;;;;;98.65;56.22;;;10.30;99.90;;;;;;6279067;22;20045;-79
2022/11/18 08:39:22;;;;;;;142.23;75.40;;;10.30;99.90;;;;;;6279187;22;20348;-80
2022/11/18 08:41:48;;;;;;;169.77;87.05;;;10.30;99.90;;;;;;6278820;22;20025;-79
2022/11/18 08:44:15;;;;;;;185.50;97.60;;;10.30;99.90;;;;;;6278589;22;20052;-80
2022/11/18 08:46:44;;;;;;;176.23;100.80;;;10.30;99.90;;;;;;6279367;22;20071;-78
2022/11/18 08:49:10;;;;;;;168.57;100.82;;;10.30;99.90;;;;;;6279088;22;20074;-79
2022/11/18 08:51:36;;;;;;;165.55;93.85;;;10.30;99.90;;;;;;6251688;22;20421;-78
2022/11/18 08:54:03;;;;;;;168.80;94.45;;;10.30;99.90;;;;;;6279173;22;20027;-80
2022/11/18 08:56:28;;;;;;;155.52;92.45;;;10.40;99.90;;;;;;6279033;22;19996;-79
2022/11/18 08:58:55;;;;;;;116.53;61.53;;;10.40;99.90;;;;;;6278492;22;20366;-79
2022/11/18 09:01:21;;;;;;;101.38;57.50;;;10.40;99.90;;;;;;6279215;22;20003;-78
2022/11/18 09:03:47;;;;;;;109.15;62.45;;;10.40;99.90;;;;;;6278612;22;20082;-80
2022/11/18 09:06:16;;;;;;;139.20;83.65;;;10.40;99.90;;;;;;6278368;22;19996;-79
2022/11/18 09:08:43;;;;;;;134.85;80.57;;;10.40;99.90;;;;;;6278937;22;20511;-79
2022/11/18 09:11:14;;;;;;;222.48;102.57;;;10.40;99.90;;;;;;6278980;22;19996;-78
2022/11/18 09:13:40;;;;;;;154.85;84.40;;;10.40;99.90;;;;;;6278794;22;20007;-79
2022/11/18 09:16:07;;;;;;;106.40;58.13;;;10.40;99.90;;;;;;6278905;22;19992;-78
2022/11/18 09:18:33;;;;;;;125.68;67.53;;;10.40;99.90;;;;;;6278824;22;19991;-79
2022/11/18 09:21:03;;;;;;;119.30;64.50;;;10.40;99.90;;;;;;6278579;22;20059;-78
2022/11/18 09:23:30;;;;;;;120.97;67.68;;;10.40;99.90;;;;;;6251654;22;20062;-78
2022/11/18 09:26:01;;;;;;;126.57;67.55;;;10.40;99.90;;;;;;6278633;22;19999;-79
2022/11/18 09:28:27;;;;;;;162.27;108.88;;;10.50;99.90;;;;;;6278858;22;20015;-79
2022/11/18 09:30:53;;;;;;;130.35;77.93;;;10.50;99.90;;;;;;6278449;22;20420;-78
2022/11/18 09:33:18;;;;;;;206.15;128.15;;;10.50;99.90;;;;;;6278694;22;19992;-79
2022/11/18 09:35:44;;;;;;;90.82;61.72;;;10.50;99.90;;;;;;6278850;22;20067;-77
2022/11/18 09:38:10;;;;;;;127.82;80.80;;;10.50;99.90;;;;;;6278227;22;19988;-78
2022/11/18 09:40:58;;;;;;;225.20;128.73;;;10.50;99.90;;;;;;6278204;22;19999;-80
2022/11/18 09:43:45;;;;;;;158.00;94.82;;;10.50;99.90;;;;;;6278635;22;20472;-78
2022/11/18 09:46:39;;;;;;;186.73;117.97;;;10.50;99.90;;;;;;6278758;22;19992;-79
2022/11/18 09:49:27;;;;;;;205.63;125.32;;;10.60;99.90;;;;;;6278832;22;20069;-79
2022/11/18 09:51:54;;;;;;;214.70;123.07;;;10.50;99.90;;;;;;6278550;22;20049;-79
2022/11/18 09:54:23;;;;;;;133.27;78.45;;;10.60;99.90;;;;;;6278109;22;19995;-77
2022/11/18 09:56:52;;;;;;;124.25;70.43;;;10.50;99.90;;;;;;6278651;22;19988;-78
2022/11/18 09:59:20;;;;;;;152.60;87.55;;;10.50;99.90;;;;;;6250873;22;20125;-78
2022/11/18 10:01:47;;;;;;;119.93;65.20;;;10.60;99.90;;;;;;6278006;22;20002;-78
2022/11/18 10:04:15;;;;;;;185.98;105.35;;;10.50;99.90;;;;;;6278015;22;20000;-78
2022/11/18 10:06:41;;;;;;;128.38;77.72;;;10.60;99.90;;;;;;6278332;22;19995;-79
2022/11/18 10:09:36;;;;;;;149.75;85.13;;;10.60;99.90;;;;;;6277849;22;19996;-79
2022/11/18 10:12:02;;;;;;;173.10;102.03;;;10.60;99.90;;;;;;6278332;22;19992;-77
2022/11/18 10:14:28;;;;;;;244.38;133.73;;;10.60;99.90;;;;;;6277751;22;20011;-77
2022/11/18 10:17:05;;;;;;;297.67;153.85;;;10.60;99.90;;;;;;6277986;22;19995;-78
2022/11/18 10:20:06;;;;;;;190.68;110.20;;;10.70;99.90;;;;;;6278224;22;19991;-77
2022/11/18 10:22:55;;;;;;;229.60;136.50;;;10.70;99.90;;;;;;6247862;22;19996;-78
2022/11/18 10:25:21;;;;;;;134.23;75.78;;;10.70;99.90;;;;;;6277944;22;19995;-78
2022/11/18 10:27:48;;;;;;;165.27;95.70;;;10.80;99.90;;;;;;6278248;22;20035;-77
2022/11/18 10:30:17;;;;;;;292.65;169.13;;;10.80;99.90;;;;;;6277897;22;20456;-78
2022/11/18 10:32:57;;;;;;;182.27;101.05;;;10.80;99.90;;;;;;6278316;22;20478;-78
2022/11/18 10:35:35;;;;;;;425.45;184.93;;;11.10;99.90;;;;;;6250533;22;20039;-78
2022/11/18 10:38:22;;;;;;;319.58;144.95;;;11.70;99.90;;;;;;6278144;22;20412;-78
2022/11/18 10:41:02;;;;;;;298.23;156.18;;;12.50;99.90;;;;;;6276950;22;20003;-79
2022/11/18 10:43:48;;;;;;;132.20;72.75;;;12.80;99.90;;;;;;6277882;22;20006;-78
2022/11/18 10:46:21;;;;;;;118.57;73.35;;;12.60;99.90;;;;;;6278192;22;20003;-79
2022/11/18 10:48:47;;;;;;;189.40;109.95;;;12.40;99.90;;;;;;6277745;22;19999;-78
2022/11/18 10:51:23;;;;;;;164.00;93.43;;;12.30;99.90;;;;;;6277769;22;20351;-79
2022/11/18 10:53:49;;;;;;;154.77;88.75;;;12.30;99.90;;;;;;6277914;22;19996;-79
2022/11/18 10:56:15;;;;;;;92.80;58.60;;;12.40;99.90;;;;;;6277718;22;20312;-79
2022/11/18 10:58:50;;;;;;;79.55;51.63;;;12.50;99.90;;;;;;6250744;22;19998;-78
2022/11/18 11:01:24;;;;;;;91.82;53.65;;;12.60;99.90;;;;;;6278033;22;20467;-79
2022/11/18 11:04:07;;;;;;;100.63;59.33;;;12.80;99.90;;;;;;6277329;22;20304;-79
2022/11/18 11:06:38;;;;;;;124.03;72.13;;;12.80;99.90;;;;;;6277902;22;20057;-77
2022/11/18 11:09:07;;;;;;;110.88;59.97;;;12.90;99.90;;;;;;6277468;22;20368;-77
2022/11/18 11:11:39;;;;;;;102.50;61.45;;;13.00;99.90;;;;;;6277335;22;20058;-79
2022/11/18 11:14:11;;;;;;;;;;;13.10;99.90;;;;;;6278126;22;20074;-77
2022/11/18 11:16:56;;;;;;;74.25;44.85;;;13.30;99.90;;;;;;6277435;22;19918;-77
2022/11/18 11:19:25;;;;;;;87.47;49.72;;;13.30;99.90;;;;;;6250473;22;20360;-77
2022/11/18 11:21:51;;;;;;;79.80;45.35;;;13.40;99.90;;;;;;6250471;22;20468;-78
2022/11/18 11:24:18;;;;;;;58.83;32.78;;;13.40;99.90;;;;;;6277653;22;20034;-77
2022/11/18 11:27:02;;;;;;;59.13;32.38;;;13.30;99.90;;;;;;6277427;22;20003;-77
2022/11/18 11:30:01;;;;;;;63.75;38.92;;;13.20;99.90;;;;;;6250266;22;20057;-79
2022/11/18 11:32:47;;;;;;;73.47;40.60;;;13.00;99.90;;;;;;6277883;22;20005;-77
2022/11/18 11:35:44;;;;;;;74.95;42.35;;;13.00;99.90;;;;;;6277673;22;19996;-78
2022/11/18 11:38:17;;;;;;;137.00;75.38;;;12.90;99.90;;;;;;6277359;22;20000;-78
2022/11/18 11:41:21;;;;;;;64.18;38.35;;;13.10;99.90;;;;;;6277376;22;20075;-77
2022/11/18 11:44:26;;;;;;;167.13;100.60;;;13.20;99.90;;;;;;6276312;22;20015;-77
2022/11/18 11:47:55;;;;;;;153.77;96.10;;;13.20;99.90;;;;;;6277334;22;20015;-78
2022/11/18 11:50:21;;;;;;;96.38;59.25;;;13.30;99.90;;;;;;6243779;22;19995;-79
2022/11/18 11:53:19;;;;;;;69.13;42.50;;;13.80;99.90;;;;;;6250077;22;20079;-79
2022/11/18 11:55:50;;;;;;;50.53;28.65;;;14.70;99.90;;;;;;6277532;22;19991;-78
2022/11/18 11:58:31;;;;;;;43.38;28.02;;;15.00;99.90;;;;;;6277005;22;20439;-78
2022/11/18 12:01:11;;;;;;;48.58;28.58;;;14.80;99.90;;;;;;6276796;22;20362;-77
2022/11/18 12:03:52;;;;;;;53.08;32.40;;;14.50;99.90;;;;;;6250157;22;20004;-79
2022/11/18 12:06:18;;;;;;;62.20;33.40;;;14.20;99.90;;;;;;6277499;22;20094;-77
2022/11/18 12:09:10;;;;;;;48.28;25.58;;;13.90;99.90;;;;;;6277106;22;20413;-77
2022/11/18 12:11:50;;;;;;;42.95;24.85;;;13.70;99.90;;;;;;6277355;22;19992;-77
2022/11/18 12:14:19;;;;;;;59.08;31.40;;;13.70;99.90;;;;;;6250087;22;20006;-79
2022/11/18 12:16:53;;;;;;;66.82;36.53;;;13.60;99.90;;;;;;6277338;22;20401;-79
2022/11/18 12:19:21;;;;;;;54.72;29.05;;;13.60;99.90;;;;;;6277394;22;20408;-78
2022/11/18 12:21:59;;;;;;;60.05;32.28;;;13.60;99.90;;;;;;6276845;22;19992;-76
2022/11/18 12:24:42;;;;;;;58.20;27.73;;;13.60;99.90;;;;;;6277283;22;20027;-78
2022/11/18 12:27:11;;;;;;;65.45;34.38;;;13.50;99.90;;;;;;6275816;22;20060;-77
2022/11/18 12:30:00;;;;;;;51.67;26.98;;;13.60;99.90;;;;;;6277068;22;20080;-77
2022/11/18 12:32:41;;;;;;;55.65;28.75;;;13.60;99.90;;;;;;6249800;22;20019;-77
2022/11/18 12:35:13;;;;;;;44.30;24.45;;;13.70;99.90;;;;;;6276762;22;19992;-79
2022/11/18 12:37:50;;;;;;;55.53;28.77;;;13.70;99.90;;;;;;6277296;22;19995;-79
2022/11/18 12:40:39;;;;;;;49.50;29.73;;;13.90;99.90;;;;;;6276753;22;20316;-78
2022/11/18 12:46:30;;;;;;;59.28;34.53;;;13.90;99.90;;;;;;6276546;22;20015;-77
2022/11/18 12:48:56;;;;;;;50.33;26.35;;;13.90;99.90;;;;;;6249526;22;20021;-78
2022/11/18 12:51:23;;;;;;;41.80;24.25;;;13.90;99.90;;;;;;6277276;22;20070;-78
2022/11/18 12:53:51;;;;;;;66.72;36.67;;;13.90;99.90;;;;;;6277066;22;20007;-78
2022/11/18 12:56:16;;;;;;;45.05;23.95;;;14.00;99.90;;;;;;6276624;22;19996;-79
2022/11/18 12:58:56;;;;;;;35.15;20.85;;;14.00;99.90;;;;;;6277218;22;20031;-77
2022/11/18 13:01:33;;;;;;;35.17;19.25;;;14.00;99.90;;;;;;6249955;22;20340;-78
2022/11/18 13:04:18;;;;;;;34.00;20.63;;;13.90;99.90;;;;;;6276946;22;19999;-78